KNQX/NQX METAR and TAF weather

Enter ICAO airport designator
Station Type Date Time Source
KNQX METAR 2022/08/12 13:53 UTC NOAA

KNQX 121353Z 12008KT 10SM SCT025 BKN250 32/25 A3005 RMK AO2 RAE1259 SLP174 P0000 T03220250 $


Station Type Date Time Source
KNQX Decoded METAR 2022/08/12 13:53 UTC NOAA

KEY WEST NAVAL AIR STATION, FL, United States (KNQX) 24-35N 81-41W 6M
Aug 12, 2022 - 09:53 AM EDT / 2022.08.12 1353 UTC
Wind: from the ESE (120 degrees) at 9 MPH (8 KT):0
Visibility: 10 mile(s):0
Sky conditions: mostly cloudy
Precipitation last hour: A trace
Temperature: 90.0 F (32.2 C)
Heat index: 102.7 F (39.3 C):1
Dew Point: 77.0 F (25.0 C)
Relative Humidity: 65%
Pressure (altimeter): 30.05 in. Hg (1017 hPa)
ob: KNQX 121353Z 12008KT 10SM SCT025 BKN250 32/25 A3005 RMK AO2 RAE1259 SLP174 P0000 T03220250
cycle: 14

Station Type Date Time Source
KNQX TAF 2022/08/12 15:47 UTC NOAA

TAF KNQX 1215/1315 12010KT 9999 VCSH SCT025 BKN250 QNH2995INS
BECMG 1222/1300 11010KT 9999 NSW SCT025 BKN250 QNH2996INS
BECMG 1306/1308 10008KT 9999 VCSH SCT250 SCT250 QNH3000INS T32/1219Z T28/1311Z FN20027

Example: see airport list